sensor_id;sensor_type;location;lat;lon;timestamp;temperature;humidity
32534;DHT22;18973;48.580;8.912;2022-07-12T00:01:56;16.20;99.90
32534;DHT22;18973;48.580;8.912;2022-07-12T00:04:22;16.30;99.90
32534;DHT22;18973;48.580;8.912;2022-07-12T00:06:48;16.40;99.90
32534;DHT22;18973;48.580;8.912;2022-07-12T00:09:13;16.20;99.90
32534;DHT22;18973;48.580;8.912;2022-07-12T00:11:39;16.30;99.90
32534;DHT22;18973;48.580;8.912;2022-07-12T00:14:06;16.20;99.90
32534;DHT22;18973;48.580;8.912;2022-07-12T00:16:32;16.10;99.90
32534;DHT22;18973;48.580;8.912;2022-07-12T00:18:58;15.90;99.90
32534;DHT22;18973;48.580;8.912;2022-07-12T00:21:24;16.00;99.90
32534;DHT22;18973;48.580;8.912;2022-07-12T00:23:50;15.80;99.90
32534;DHT22;18973;48.580;8.912;2022-07-12T00:26:16;15.80;99.90
32534;DHT22;18973;48.580;8.912;2022-07-12T00:28:42;15.80;99.90
32534;DHT22;18973;48.580;8.912;2022-07-12T00:31:07;16.00;99.90
32534;DHT22;18973;48.580;8.912;2022-07-12T00:33:33;15.80;99.90
32534;DHT22;18973;48.580;8.912;2022-07-12T00:35:59;15.80;99.90
32534;DHT22;18973;48.580;8.912;2022-07-12T00:38:24;15.60;99.90
32534;DHT22;18973;48.580;8.912;2022-07-12T00:40:50;15.70;99.90
32534;DHT22;18973;48.580;8.912;2022-07-12T00:43:16;15.80;99.90
32534;DHT22;18973;48.580;8.912;2022-07-12T00:45:42;15.80;99.90
32534;DHT22;18973;48.580;8.912;2022-07-12T00:48:08;15.90;99.90
32534;DHT22;18973;48.580;8.912;2022-07-12T00:50:34;15.80;99.90
32534;DHT22;18973;48.580;8.912;2022-07-12T00:53:00;15.90;99.90
32534;DHT22;18973;48.580;8.912;2022-07-12T00:55:26;15.60;99.90
32534;DHT22;18973;48.580;8.912;2022-07-12T00:57:52;15.40;99.90
32534;DHT22;18973;48.580;8.912;2022-07-12T01:00:27;15.20;99.90
32534;DHT22;18973;48.580;8.912;2022-07-12T01:02:56;15.00;99.90
32534;DHT22;18973;48.580;8.912;2022-07-12T01:05:22;15.20;99.90
32534;DHT22;18973;48.580;8.912;2022-07-12T01:07:49;15.00;99.90
32534;DHT22;18973;48.580;8.912;2022-07-12T01:10:15;15.00;99.90
32534;DHT22;18973;48.580;8.912;2022-07-12T01:12:41;15.10;99.90
32534;DHT22;18973;48.580;8.912;2022-07-12T01:15:08;15.20;99.90
32534;DHT22;18973;48.580;8.912;2022-07-12T01:17:35;15.20;99.90
32534;DHT22;18973;48.580;8.912;2022-07-12T01:20:03;15.00;99.90
32534;DHT22;18973;48.580;8.912;2022-07-12T01:22:34;14.90;99.90
32534;DHT22;18973;48.580;8.912;2022-07-12T01:25:01;14.90;99.90
32534;DHT22;18973;48.580;8.912;2022-07-12T01:27:28;14.80;99.90
32534;DHT22;18973;48.580;8.912;2022-07-12T01:29:55;14.90;99.90
32534;DHT22;18973;48.580;8.912;2022-07-12T01:32:21;14.90;99.90
32534;DHT22;18973;48.580;8.912;2022-07-12T01:34:54;14.80;99.90
32534;DHT22;18973;48.580;8.912;2022-07-12T01:37:21;14.70;99.90
32534;DHT22;18973;48.580;8.912;2022-07-12T01:39:51;14.80;99.90
32534;DHT22;18973;48.580;8.912;2022-07-12T01:42:18;14.70;99.90
32534;DHT22;18973;48.580;8.912;2022-07-12T01:44:44;14.70;99.90
32534;DHT22;18973;48.580;8.912;2022-07-12T01:47:10;14.60;99.90
32534;DHT22;18973;48.580;8.912;2022-07-12T01:49:36;14.60;99.90
32534;DHT22;18973;48.580;8.912;2022-07-12T01:52:02;14.60;99.90
32534;DHT22;18973;48.580;8.912;2022-07-12T01:54:28;14.60;99.90
32534;DHT22;18973;48.580;8.912;2022-07-12T01:56:54;14.70;99.90
32534;DHT22;18973;48.580;8.912;2022-07-12T01:59:20;14.80;99.90
32534;DHT22;18973;48.580;8.912;2022-07-12T02:01:46;14.90;99.90
32534;DHT22;18973;48.580;8.912;2022-07-12T02:04:16;15.00;99.90
32534;DHT22;18973;48.580;8.912;2022-07-12T02:06:44;14.90;99.90
32534;DHT22;18973;48.580;8.912;2022-07-12T02:09:10;14.90;99.90
32534;DHT22;18973;48.580;8.912;2022-07-12T02:11:36;14.90;99.90
32534;DHT22;18973;48.580;8.912;2022-07-12T02:14:02;14.80;99.90
32534;DHT22;18973;48.580;8.912;2022-07-12T02:16:27;14.80;99.90
32534;DHT22;18973;48.580;8.912;2022-07-12T02:18:53;14.90;99.90
32534;DHT22;18973;48.580;8.912;2022-07-12T02:21:19;14.90;99.90
32534;DHT22;18973;48.580;8.912;2022-07-12T02:23:45;15.00;99.90
32534;DHT22;18973;48.580;8.912;2022-07-12T02:26:10;15.10;99.90
32534;DHT22;18973;48.580;8.912;2022-07-12T02:28:36;15.30;99.90
32534;DHT22;18973;48.580;8.912;2022-07-12T02:31:02;15.30;99.90
32534;DHT22;18973;48.580;8.912;2022-07-12T02:33:28;15.00;99.90
32534;DHT22;18973;48.580;8.912;2022-07-12T02:35:53;14.90;99.90
32534;DHT22;18973;48.580;8.912;2022-07-12T02:38:19;14.80;99.90
32534;DHT22;18973;48.580;8.912;2022-07-12T02:40:47;14.90;99.90
32534;DHT22;18973;48.580;8.912;2022-07-12T02:43:19;14.70;99.90
32534;DHT22;18973;48.580;8.912;2022-07-12T02:45:45;14.80;99.90
32534;DHT22;18973;48.580;8.912;2022-07-12T02:48:10;14.80;99.90
32534;DHT22;18973;48.580;8.912;2022-07-12T02:50:38;14.90;99.90
32534;DHT22;18973;48.580;8.912;2022-07-12T02:53:08;14.80;99.90
32534;DHT22;18973;48.580;8.912;2022-07-12T02:55:35;14.80;99.90
32534;DHT22;18973;48.580;8.912;2022-07-12T02:58:02;14.80;99.90
32534;DHT22;18973;48.580;8.912;2022-07-12T03:00:28;14.90;99.90
32534;DHT22;18973;48.580;8.912;2022-07-12T03:02:54;15.00;99.90
32534;DHT22;18973;48.580;8.912;2022-07-12T03:05:20;15.00;99.90
32534;DHT22;18973;48.580;8.912;2022-07-12T03:07:45;14.80;99.90
32534;DHT22;18973;48.580;8.912;2022-07-12T03:10:11;14.80;99.90
32534;DHT22;18973;48.580;8.912;2022-07-12T03:12:37;14.80;99.90
32534;DHT22;18973;48.580;8.912;2022-07-12T03:15:04;14.70;99.90
32534;DHT22;18973;48.580;8.912;2022-07-12T03:17:30;14.70;99.90
32534;DHT22;18973;48.580;8.912;2022-07-12T03:19:56;14.80;99.90
32534;DHT22;18973;48.580;8.912;2022-07-12T03:22:22;14.90;99.90
32534;DHT22;18973;48.580;8.912;2022-07-12T03:24:48;14.90;99.90
32534;DHT22;18973;48.580;8.912;2022-07-12T03:27:13;14.90;99.90
32534;DHT22;18973;48.580;8.912;2022-07-12T03:29:39;14.90;99.90
32534;DHT22;18973;48.580;8.912;2022-07-12T03:32:06;14.90;99.90
32534;DHT22;18973;48.580;8.912;2022-07-12T03:34:32;14.90;99.90
32534;DHT22;18973;48.580;8.912;2022-07-12T03:36:58;15.00;99.90
32534;DHT22;18973;48.580;8.912;2022-07-12T03:39:24;15.00;99.90
32534;DHT22;18973;48.580;8.912;2022-07-12T03:41:50;15.00;99.90
32534;DHT22;18973;48.580;8.912;2022-07-12T03:44:16;15.10;99.90
32534;DHT22;18973;48.580;8.912;2022-07-12T03:46:41;15.10;99.90
32534;DHT22;18973;48.580;8.912;2022-07-12T03:49:07;15.10;99.90
32534;DHT22;18973;48.580;8.912;2022-07-12T03:51:33;15.10;99.90
32534;DHT22;18973;48.580;8.912;2022-07-12T03:53:59;15.20;99.90
32534;DHT22;18973;48.580;8.912;2022-07-12T03:56:24;15.30;99.90
32534;DHT22;18973;48.580;8.912;2022-07-12T03:59:09;15.30;99.90
32534;DHT22;18973;48.580;8.912;2022-07-12T04:01:35;15.20;99.90
32534;DHT22;18973;48.580;8.912;2022-07-12T04:04:01;15.20;99.90
32534;DHT22;18973;48.580;8.912;2022-07-12T04:06:28;15.10;99.90
32534;DHT22;18973;48.580;8.912;2022-07-12T04:08:53;14.90;99.90
32534;DHT22;18973;48.580;8.912;2022-07-12T04:11:19;14.90;99.90
32534;DHT22;18973;48.580;8.912;2022-07-12T04:13:45;14.70;99.90
32534;DHT22;18973;48.580;8.912;2022-07-12T04:16:10;14.80;99.90
32534;DHT22;18973;48.580;8.912;2022-07-12T04:18:38;14.70;99.90
32534;DHT22;18973;48.580;8.912;2022-07-12T04:21:04;14.80;99.90
32534;DHT22;18973;48.580;8.912;2022-07-12T04:23:29;14.90;99.90
32534;DHT22;18973;48.580;8.912;2022-07-12T04:25:55;15.00;99.90
32534;DHT22;18973;48.580;8.912;2022-07-12T04:28:21;15.00;99.90
32534;DHT22;18973;48.580;8.912;2022-07-12T04:30:47;14.90;99.90
32534;DHT22;18973;48.580;8.912;2022-07-12T04:33:14;14.90;99.90
32534;DHT22;18973;48.580;8.912;2022-07-12T04:35:40;15.00;99.90
32534;DHT22;18973;48.580;8.912;2022-07-12T04:38:07;15.10;99.90
32534;DHT22;18973;48.580;8.912;2022-07-12T04:40:33;15.10;99.90
32534;DHT22;18973;48.580;8.912;2022-07-12T04:42:59;15.00;99.90
32534;DHT22;18973;48.580;8.912;2022-07-12T04:45:25;14.80;99.90
32534;DHT22;18973;48.580;8.912;2022-07-12T04:47:51;14.60;99.90
32534;DHT22;18973;48.580;8.912;2022-07-12T04:50:19;14.60;99.90
32534;DHT22;18973;48.580;8.912;2022-07-12T04:52:45;14.50;99.90
32534;DHT22;18973;48.580;8.912;2022-07-12T04:55:10;14.50;99.90
32534;DHT22;18973;48.580;8.912;2022-07-12T04:57:36;14.60;99.90
32534;DHT22;18973;48.580;8.912;2022-07-12T05:00:04;14.90;99.90
32534;DHT22;18973;48.580;8.912;2022-07-12T05:02:32;15.30;99.90
32534;DHT22;18973;48.580;8.912;2022-07-12T05:04:58;15.60;99.90
32534;DHT22;18973;48.580;8.912;2022-07-12T05:07:24;15.90;99.90
32534;DHT22;18973;48.580;8.912;2022-07-12T05:09:49;16.00;99.90
32534;DHT22;18973;48.580;8.912;2022-07-12T05:12:17;16.10;99.90
32534;DHT22;18973;48.580;8.912;2022-07-12T05:14:43;16.40;99.90
32534;DHT22;18973;48.580;8.912;2022-07-12T05:17:09;16.60;99.90
32534;DHT22;18973;48.580;8.912;2022-07-12T05:19:35;16.60;99.90
32534;DHT22;18973;48.580;8.912;2022-07-12T05:22:00;16.60;99.90
32534;DHT22;18973;48.580;8.912;2022-07-12T05:24:27;16.70;99.90
32534;DHT22;18973;48.580;8.912;2022-07-12T05:26:54;16.80;99.90
32534;DHT22;18973;48.580;8.912;2022-07-12T05:29:19;16.70;99.90
32534;DHT22;18973;48.580;8.912;2022-07-12T05:31:45;16.70;99.90
32534;DHT22;18973;48.580;8.912;2022-07-12T05:34:11;17.00;99.90
32534;DHT22;18973;48.580;8.912;2022-07-12T05:36:37;17.20;99.90
32534;DHT22;18973;48.580;8.912;2022-07-12T05:39:03;17.30;99.90
32534;DHT22;18973;48.580;8.912;2022-07-12T05:41:29;17.40;99.90
32534;DHT22;18973;48.580;8.912;2022-07-12T05:43:55;17.50;99.90
32534;DHT22;18973;48.580;8.912;2022-07-12T05:46:21;17.50;99.90
32534;DHT22;18973;48.580;8.912;2022-07-12T05:48:46;17.70;99.90
32534;DHT22;18973;48.580;8.912;2022-07-12T05:51:12;17.70;99.90
32534;DHT22;18973;48.580;8.912;2022-07-12T05:53:56;17.90;99.90
32534;DHT22;18973;48.580;8.912;2022-07-12T05:56:22;18.00;99.90
32534;DHT22;18973;48.580;8.912;2022-07-12T05:58:48;17.90;99.90
32534;DHT22;18973;48.580;8.912;2022-07-12T06:01:14;18.00;99.90
32534;DHT22;18973;48.580;8.912;2022-07-12T06:03:39;18.10;99.90
32534;DHT22;18973;48.580;8.912;2022-07-12T06:06:05;18.20;99.90
32534;DHT22;18973;48.580;8.912;2022-07-12T06:08:31;18.10;99.90
32534;DHT22;18973;48.580;8.912;2022-07-12T06:10:56;18.20;99.90
32534;DHT22;18973;48.580;8.912;2022-07-12T06:13:22;18.20;99.90
32534;DHT22;18973;48.580;8.912;2022-07-12T06:15:48;18.20;99.90
32534;DHT22;18973;48.580;8.912;2022-07-12T06:18:14;18.20;99.90
32534;DHT22;18973;48.580;8.912;2022-07-12T06:20:39;18.20;99.90
32534;DHT22;18973;48.580;8.912;2022-07-12T06:23:05;18.40;99.90
32534;DHT22;18973;48.580;8.912;2022-07-12T06:25:31;18.50;99.90
32534;DHT22;18973;48.580;8.912;2022-07-12T06:28:04;18.40;99.90
32534;DHT22;18973;48.580;8.912;2022-07-12T06:30:30;18.50;99.90
32534;DHT22;18973;48.580;8.912;2022-07-12T06:32:55;18.60;99.90
32534;DHT22;18973;48.580;8.912;2022-07-12T06:35:21;18.60;99.90
32534;DHT22;18973;48.580;8.912;2022-07-12T06:37:47;18.60;99.90
32534;DHT22;18973;48.580;8.912;2022-07-12T06:40:13;18.50;99.90
32534;DHT22;18973;48.580;8.912;2022-07-12T06:42:43;18.70;99.90
32534;DHT22;18973;48.580;8.912;2022-07-12T06:45:09;18.80;99.90
32534;DHT22;18973;48.580;8.912;2022-07-12T06:47:36;19.00;99.90
32534;DHT22;18973;48.580;8.912;2022-07-12T06:50:03;19.20;99.90
32534;DHT22;18973;48.580;8.912;2022-07-12T06:52:29;19.30;99.90
32534;DHT22;18973;48.580;8.912;2022-07-12T06:54:56;19.40;99.90
32534;DHT22;18973;48.580;8.912;2022-07-12T06:57:21;19.50;99.90
32534;DHT22;18973;48.580;8.912;2022-07-12T06:59:47;19.70;99.90
32534;DHT22;18973;48.580;8.912;2022-07-12T07:02:14;19.80;99.90
32534;DHT22;18973;48.580;8.912;2022-07-12T07:04:39;19.90;99.90
32534;DHT22;18973;48.580;8.912;2022-07-12T07:07:05;19.80;99.90
32534;DHT22;18973;48.580;8.912;2022-07-12T07:09:31;19.90;99.90
32534;DHT22;18973;48.580;8.912;2022-07-12T07:11:57;19.90;99.90
32534;DHT22;18973;48.580;8.912;2022-07-12T07:14:22;20.10;99.90
32534;DHT22;18973;48.580;8.912;2022-07-12T07:16:48;20.40;99.90
32534;DHT22;18973;48.580;8.912;2022-07-12T07:19:14;20.60;99.90
32534;DHT22;18973;48.580;8.912;2022-07-12T07:21:40;20.90;99.90
32534;DHT22;18973;48.580;8.912;2022-07-12T07:24:05;21.20;99.90
32534;DHT22;18973;48.580;8.912;2022-07-12T07:26:31;21.20;99.90
32534;DHT22;18973;48.580;8.912;2022-07-12T07:28:58;21.50;99.90
32534;DHT22;18973;48.580;8.912;2022-07-12T07:31:42;21.70;99.90
32534;DHT22;18973;48.580;8.912;2022-07-12T07:34:09;22.00;99.90
32534;DHT22;18973;48.580;8.912;2022-07-12T07:36:35;22.30;99.90
32534;DHT22;18973;48.580;8.912;2022-07-12T07:39:00;22.30;99.90
32534;DHT22;18973;48.580;8.912;2022-07-12T07:41:26;22.50;99.90
32534;DHT22;18973;48.580;8.912;2022-07-12T07:43:52;22.60;99.90
32534;DHT22;18973;48.580;8.912;2022-07-12T07:46:17;22.90;99.90
32534;DHT22;18973;48.580;8.912;2022-07-12T07:48:43;23.20;99.70
32534;DHT22;18973;48.580;8.912;2022-07-12T07:51:09;23.30;99.10
32534;DHT22;18973;48.580;8.912;2022-07-12T07:53:35;23.50;97.50
32534;DHT22;18973;48.580;8.912;2022-07-12T07:56:00;23.70;97.30
32534;DHT22;18973;48.580;8.912;2022-07-12T07:58:26;23.80;95.70
32534;DHT22;18973;48.580;8.912;2022-07-12T08:00:52;23.90;96.00
32534;DHT22;18973;48.580;8.912;2022-07-12T08:03:19;24.00;96.70
32534;DHT22;18973;48.580;8.912;2022-07-12T08:05:45;23.90;96.20
32534;DHT22;18973;48.580;8.912;2022-07-12T08:08:11;23.40;96.10
32534;DHT22;18973;48.580;8.912;2022-07-12T08:10:37;23.30;96.60
32534;DHT22;18973;48.580;8.912;2022-07-12T08:13:02;23.40;97.50
32534;DHT22;18973;48.580;8.912;2022-07-12T08:15:28;23.80;96.90
32534;DHT22;18973;48.580;8.912;2022-07-12T08:17:54;24.10;96.00
32534;DHT22;18973;48.580;8.912;2022-07-12T08:20:23;24.50;93.50
32534;DHT22;18973;48.580;8.912;2022-07-12T08:22:49;24.80;93.90
32534;DHT22;18973;48.580;8.912;2022-07-12T08:25:15;24.70;93.40
32534;DHT22;18973;48.580;8.912;2022-07-12T08:27:41;24.90;93.20
32534;DHT22;18973;48.580;8.912;2022-07-12T08:30:08;25.20;93.70
32534;DHT22;18973;48.580;8.912;2022-07-12T08:32:34;25.00;90.90
32534;DHT22;18973;48.580;8.912;2022-07-12T08:35:00;24.70;90.90
32534;DHT22;18973;48.580;8.912;2022-07-12T08:37:26;24.90;92.10
32534;DHT22;18973;48.580;8.912;2022-07-12T08:39:51;25.30;91.40
32534;DHT22;18973;48.580;8.912;2022-07-12T08:42:26;25.50;89.30
32534;DHT22;18973;48.580;8.912;2022-07-12T08:44:58;25.80;90.50
32534;DHT22;18973;48.580;8.912;2022-07-12T08:47:23;25.90;88.00
32534;DHT22;18973;48.580;8.912;2022-07-12T08:50:19;26.10;86.60
32534;DHT22;18973;48.580;8.912;2022-07-12T08:52:52;26.20;83.60
32534;DHT22;18973;48.580;8.912;2022-07-12T08:55:24;26.30;82.90
32534;DHT22;18973;48.580;8.912;2022-07-12T08:57:53;26.50;79.90
32534;DHT22;18973;48.580;8.912;2022-07-12T09:00:19;26.60;82.60
32534;DHT22;18973;48.580;8.912;2022-07-12T09:02:53;26.80;79.30
32534;DHT22;18973;48.580;8.912;2022-07-12T09:05:20;27.20;82.70
32534;DHT22;18973;48.580;8.912;2022-07-12T09:07:47;27.20;78.40
32534;DHT22;18973;48.580;8.912;2022-07-12T09:10:14;26.80;77.70
32534;DHT22;18973;48.580;8.912;2022-07-12T09:12:41;26.80;80.30
32534;DHT22;18973;48.580;8.912;2022-07-12T09:15:20;26.70;79.70
32534;DHT22;18973;48.580;8.912;2022-07-12T09:17:59;26.50;77.90
32534;DHT22;18973;48.580;8.912;2022-07-12T09:20:30;26.70;78.00
32534;DHT22;18973;48.580;8.912;2022-07-12T09:23:14;26.80;78.40
32534;DHT22;18973;48.580;8.912;2022-07-12T09:25:44;26.70;75.70
32534;DHT22;18973;48.580;8.912;2022-07-12T09:28:11;27.00;79.30
32534;DHT22;18973;48.580;8.912;2022-07-12T09:30:47;27.20;75.40
32534;DHT22;18973;48.580;8.912;2022-07-12T09:33:18;27.10;75.90
32534;DHT22;18973;48.580;8.912;2022-07-12T09:36:03;27.30;74.90
32534;DHT22;18973;48.580;8.912;2022-07-12T09:38:40;27.50;74.60
32534;DHT22;18973;48.580;8.912;2022-07-12T09:41:17;27.70;73.30
32534;DHT22;18973;48.580;8.912;2022-07-12T09:43:44;27.40;74.40
32534;DHT22;18973;48.580;8.912;2022-07-12T09:46:10;27.30;74.00
32534;DHT22;18973;48.580;8.912;2022-07-12T09:48:37;27.30;74.30
32534;DHT22;18973;48.580;8.912;2022-07-12T09:51:03;26.90;73.00
32534;DHT22;18973;48.580;8.912;2022-07-12T09:53:40;26.80;76.80
32534;DHT22;18973;48.580;8.912;2022-07-12T09:56:10;27.10;74.80
32534;DHT22;18973;48.580;8.912;2022-07-12T09:58:40;27.30;71.70
32534;DHT22;18973;48.580;8.912;2022-07-12T10:01:10;27.40;73.30
32534;DHT22;18973;48.580;8.912;2022-07-12T10:03:36;27.60;74.90
32534;DHT22;18973;48.580;8.912;2022-07-12T10:06:06;27.90;72.70
32534;DHT22;18973;48.580;8.912;2022-07-12T10:08:32;27.80;69.30
32534;DHT22;18973;48.580;8.912;2022-07-12T10:10:59;27.90;67.40
32534;DHT22;18973;48.580;8.912;2022-07-12T10:13:26;27.40;69.00
32534;DHT22;18973;48.580;8.912;2022-07-12T10:16:00;27.60;69.70
32534;DHT22;18973;48.580;8.912;2022-07-12T10:18:26;27.80;72.20
32534;DHT22;18973;48.580;8.912;2022-07-12T10:20:52;27.80;69.60
32534;DHT22;18973;48.580;8.912;2022-07-12T10:23:33;28.10;72.30
32534;DHT22;18973;48.580;8.912;2022-07-12T10:28:59;28.50;67.70
32534;DHT22;18973;48.580;8.912;2022-07-12T10:31:28;28.30;66.30
32534;DHT22;18973;48.580;8.912;2022-07-12T10:34:41;28.40;68.40
32534;DHT22;18973;48.580;8.912;2022-07-12T10:39:29;28.40;64.60
32534;DHT22;18973;48.580;8.912;2022-07-12T10:44:40;27.30;66.40
32534;DHT22;18973;48.580;8.912;2022-07-12T10:47:07;27.10;68.10
32534;DHT22;18973;48.580;8.912;2022-07-12T10:49:35;27.40;69.10
32534;DHT22;18973;48.580;8.912;2022-07-12T10:57:41;28.00;66.20
32534;DHT22;18973;48.580;8.912;2022-07-12T11:00:09;27.90;65.00
32534;DHT22;18973;48.580;8.912;2022-07-12T11:02:36;28.10;65.70
32534;DHT22;18973;48.580;8.912;2022-07-12T11:05:02;27.50;65.70
32534;DHT22;18973;48.580;8.912;2022-07-12T11:07:28;27.60;66.50
32534;DHT22;18973;48.580;8.912;2022-07-12T11:09:55;27.40;64.50
32534;DHT22;18973;48.580;8.912;2022-07-12T11:12:27;27.40;67.80
32534;DHT22;18973;48.580;8.912;2022-07-12T11:14:53;27.50;66.90
32534;DHT22;18973;48.580;8.912;2022-07-12T11:17:29;27.90;67.60
32534;DHT22;18973;48.580;8.912;2022-07-12T11:20:08;27.80;66.00
32534;DHT22;18973;48.580;8.912;2022-07-12T11:22:36;28.20;68.00
32534;DHT22;18973;48.580;8.912;2022-07-12T11:25:03;28.50;65.90
32534;DHT22;18973;48.580;8.912;2022-07-12T11:27:29;28.80;66.30
32534;DHT22;18973;48.580;8.912;2022-07-12T11:30:03;29.20;67.10
32534;DHT22;18973;48.580;8.912;2022-07-12T11:32:47;29.50;61.90
32534;DHT22;18973;48.580;8.912;2022-07-12T11:35:20;29.60;61.70
32534;DHT22;18973;48.580;8.912;2022-07-12T11:37:54;29.70;61.90
32534;DHT22;18973;48.580;8.912;2022-07-12T11:40:22;29.60;60.40
32534;DHT22;18973;48.580;8.912;2022-07-12T11:42:58;29.40;61.10
32534;DHT22;18973;48.580;8.912;2022-07-12T11:45:29;29.20;61.50
32534;DHT22;18973;48.580;8.912;2022-07-12T11:47:57;29.10;60.40
32534;DHT22;18973;48.580;8.912;2022-07-12T11:50:23;29.10;61.70
32534;DHT22;18973;48.580;8.912;2022-07-12T11:52:49;29.30;63.30
32534;DHT22;18973;48.580;8.912;2022-07-12T11:55:15;29.60;62.60
32534;DHT22;18973;48.580;8.912;2022-07-12T11:57:42;29.70;61.40
32534;DHT22;18973;48.580;8.912;2022-07-12T12:02:39;30.10;60.50
32534;DHT22;18973;48.580;8.912;2022-07-12T12:05:05;30.10;59.10
32534;DHT22;18973;48.580;8.912;2022-07-12T12:07:32;29.70;57.30
32534;DHT22;18973;48.580;8.912;2022-07-12T12:12:41;28.80;59.10
32534;DHT22;18973;48.580;8.912;2022-07-12T12:15:09;28.80;57.10
32534;DHT22;18973;48.580;8.912;2022-07-12T12:17:36;28.70;57.30
32534;DHT22;18973;48.580;8.912;2022-07-12T12:20:27;28.40;57.80
32534;DHT22;18973;48.580;8.912;2022-07-12T12:22:58;28.40;60.20
32534;DHT22;18973;48.580;8.912;2022-07-12T12:25:25;28.60;58.90
32534;DHT22;18973;48.580;8.912;2022-07-12T12:28:02;28.90;59.30
32534;DHT22;18973;48.580;8.912;2022-07-12T12:30:33;29.20;59.00
32534;DHT22;18973;48.580;8.912;2022-07-12T12:35:36;28.50;57.30
32534;DHT22;18973;48.580;8.912;2022-07-12T12:38:13;28.80;60.60
32534;DHT22;18973;48.580;8.912;2022-07-12T12:40:39;28.80;57.60
32534;DHT22;18973;48.580;8.912;2022-07-12T12:43:10;29.00;59.80
32534;DHT22;18973;48.580;8.912;2022-07-12T12:45:52;29.40;61.10
32534;DHT22;18973;48.580;8.912;2022-07-12T12:48:26;29.50;58.10
32534;DHT22;18973;48.580;8.912;2022-07-12T12:50:54;29.70;58.60
32534;DHT22;18973;48.580;8.912;2022-07-12T12:53:22;29.70;58.60
32534;DHT22;18973;48.580;8.912;2022-07-12T12:55:52;29.90;60.30
32534;DHT22;18973;48.580;8.912;2022-07-12T12:58:19;30.00;56.70
32534;DHT22;18973;48.580;8.912;2022-07-12T13:00:50;29.60;59.80
32534;DHT22;18973;48.580;8.912;2022-07-12T13:03:18;29.70;59.40
32534;DHT22;18973;48.580;8.912;2022-07-12T13:05:45;29.70;57.20
32534;DHT22;18973;48.580;8.912;2022-07-12T13:08:13;29.70;57.90
32534;DHT22;18973;48.580;8.912;2022-07-12T13:10:41;29.00;56.70
32534;DHT22;18973;48.580;8.912;2022-07-12T13:13:08;29.20;60.20
32534;DHT22;18973;48.580;8.912;2022-07-12T13:15:35;29.40;57.70
32534;DHT22;18973;48.580;8.912;2022-07-12T13:18:01;29.60;57.30
32534;DHT22;18973;48.580;8.912;2022-07-12T13:20:27;29.80;57.80
32534;DHT22;18973;48.580;8.912;2022-07-12T13:22:54;29.70;55.80
32534;DHT22;18973;48.580;8.912;2022-07-12T13:25:20;29.70;55.50
32534;DHT22;18973;48.580;8.912;2022-07-12T13:27:46;29.80;55.20
32534;DHT22;18973;48.580;8.912;2022-07-12T13:30:14;30.00;56.90
32534;DHT22;18973;48.580;8.912;2022-07-12T13:32:40;30.10;56.40
32534;DHT22;18973;48.580;8.912;2022-07-12T13:35:07;30.10;54.90
32534;DHT22;18973;48.580;8.912;2022-07-12T13:37:35;30.20;54.90
32534;DHT22;18973;48.580;8.912;2022-07-12T13:40:01;29.90;55.10
32534;DHT22;18973;48.580;8.912;2022-07-12T13:42:44;30.10;57.40
32534;DHT22;18973;48.580;8.912;2022-07-12T13:45:13;30.20;55.50
32534;DHT22;18973;48.580;8.912;2022-07-12T13:47:40;30.20;55.50
32534;DHT22;18973;48.580;8.912;2022-07-12T13:50:07;30.20;55.80
32534;DHT22;18973;48.580;8.912;2022-07-12T13:52:33;30.40;56.10
32534;DHT22;18973;48.580;8.912;2022-07-12T13:54:59;30.40;55.10
32534;DHT22;18973;48.580;8.912;2022-07-12T13:57:25;30.50;56.40
32534;DHT22;18973;48.580;8.912;2022-07-12T13:59:51;30.60;53.60
32534;DHT22;18973;48.580;8.912;2022-07-12T14:02:18;30.30;53.10
32534;DHT22;18973;48.580;8.912;2022-07-12T14:04:44;30.30;55.50
32534;DHT22;18973;48.580;8.912;2022-07-12T14:07:11;30.40;54.70
32534;DHT22;18973;48.580;8.912;2022-07-12T14:09:37;30.40;55.50
32534;DHT22;18973;48.580;8.912;2022-07-12T14:12:03;30.30;53.70
32534;DHT22;18973;48.580;8.912;2022-07-12T14:14:30;30.30;55.90
32534;DHT22;18973;48.580;8.912;2022-07-12T14:17:14;30.30;53.70
32534;DHT22;18973;48.580;8.912;2022-07-12T14:19:40;30.30;54.20
32534;DHT22;18973;48.580;8.912;2022-07-12T14:22:06;30.20;53.70
32534;DHT22;18973;48.580;8.912;2022-07-12T14:24:32;30.10;53.60
32534;DHT22;18973;48.580;8.912;2022-07-12T14:26:57;29.90;52.80
32534;DHT22;18973;48.580;8.912;2022-07-12T14:29:23;29.40;53.30
32534;DHT22;18973;48.580;8.912;2022-07-12T14:31:49;29.00;53.50
32534;DHT22;18973;48.580;8.912;2022-07-12T14:34:15;29.00;53.70
32534;DHT22;18973;48.580;8.912;2022-07-12T14:36:41;28.90;55.50
32534;DHT22;18973;48.580;8.912;2022-07-12T14:39:07;28.80;55.00
32534;DHT22;18973;48.580;8.912;2022-07-12T14:41:33;28.50;54.20
32534;DHT22;18973;48.580;8.912;2022-07-12T14:43:58;28.30;55.40
32534;DHT22;18973;48.580;8.912;2022-07-12T14:46:24;28.40;55.80
32534;DHT22;18973;48.580;8.912;2022-07-12T14:48:50;28.50;55.80
32534;DHT22;18973;48.580;8.912;2022-07-12T14:51:16;28.60;56.10
32534;DHT22;18973;48.580;8.912;2022-07-12T14:53:42;28.60;55.40
32534;DHT22;18973;48.580;8.912;2022-07-12T14:56:08;28.50;55.80
32534;DHT22;18973;48.580;8.912;2022-07-12T14:58:33;28.60;55.20
32534;DHT22;18973;48.580;8.912;2022-07-12T15:00:59;28.50;55.30
32534;DHT22;18973;48.580;8.912;2022-07-12T15:03:25;28.30;54.70
32534;DHT22;18973;48.580;8.912;2022-07-12T15:05:52;28.00;55.50
32534;DHT22;18973;48.580;8.912;2022-07-12T15:08:18;28.00;57.10
32534;DHT22;18973;48.580;8.912;2022-07-12T15:10:44;28.10;56.10
32534;DHT22;18973;48.580;8.912;2022-07-12T15:13:09;28.20;56.60
32534;DHT22;18973;48.580;8.912;2022-07-12T15:15:35;28.40;55.90
32534;DHT22;18973;48.580;8.912;2022-07-12T15:18:01;28.40;55.70
32534;DHT22;18973;48.580;8.912;2022-07-12T15:20:27;28.50;55.10
32534;DHT22;18973;48.580;8.912;2022-07-12T15:22:53;28.60;55.60
32534;DHT22;18973;48.580;8.912;2022-07-12T15:25:18;28.50;56.50
32534;DHT22;18973;48.580;8.912;2022-07-12T15:27:44;28.50;55.40
32534;DHT22;18973;48.580;8.912;2022-07-12T15:30:10;28.60;56.00
32534;DHT22;18973;48.580;8.912;2022-07-12T15:32:37;28.50;55.40
32534;DHT22;18973;48.580;8.912;2022-07-12T15:35:03;28.50;54.60
32534;DHT22;18973;48.580;8.912;2022-07-12T15:37:28;28.30;54.40
32534;DHT22;18973;48.580;8.912;2022-07-12T15:39:54;28.40;55.10
32534;DHT22;18973;48.580;8.912;2022-07-12T15:42:20;28.40;54.90
32534;DHT22;18973;48.580;8.912;2022-07-12T15:44:46;28.40;55.00
32534;DHT22;18973;48.580;8.912;2022-07-12T15:47:12;28.40;55.20
32534;DHT22;18973;48.580;8.912;2022-07-12T15:49:40;28.30;54.80
32534;DHT22;18973;48.580;8.912;2022-07-12T15:52:06;28.20;55.60
32534;DHT22;18973;48.580;8.912;2022-07-12T15:54:51;28.10;55.90